Station Historical Data
Daily Summary for April 5, 2012 Units:  English    Metric   Both
« Previous Day
Next Day »
Daily Weekly Monthly Yearly Custom
  High: Low: Average:
Temperature: 72.9 °F 54.8 °F 62.5 °F
Dew Point: 62.4 °F 49.2 °F 57 °F
Humidity: 95% 44% 84%
Wind Speed: 17.0mph 0.0mph 3.5mph
Wind Gust: 23.0mph - -
Wind- - WSW
Pressure: 29.79 in 29.61 in -
Precipitation: 0.00 in    
Historical Graphs
 
 
Tabular Data for April 5, 2012
Time Temperature Dew Point Pressure Wind Wind Speed Wind Gust Humidity Rainfall Rate (Hourly) Conditions
00:00 65.1 °F 61.8 °F 29.70 in SW 1.0 mph 1.0 mph 89% 0.00 in
00:02 65.0 °F 61.7 °F 29.69 in SW 1.0 mph 1.0 mph 89% 0.00 in
00:07 64.8 °F 61.5 °F 29.70 in SW 1.0 mph 1.0 mph 89% 0.00 in
00:13 64.7 °F 61.4 °F 29.70 in SW 2.0 mph 2.0 mph 89% 0.00 in
00:18 64.6 °F 61.3 °F 29.70 in SW 2.0 mph 2.0 mph 89% 0.00 in
00:23 64.6 °F 61.3 °F 29.70 in SW 1.0 mph 2.0 mph 89% 0.00 in
00:28 64.6 °F 61.3 °F 29.70 in Calm   2.0 mph 89% 0.00 in
00:33 64.4 °F 61.1 °F 29.70 in WSW 1.0 mph 1.0 mph 89% 0.00 in
00:38 64.3 °F 61.3 °F 29.70 in Calm   1.0 mph 90% 0.00 in
00:43 64.1 °F 61.1 °F 29.70 in SW 1.0 mph 1.0 mph 90% 0.00 in
00:48 63.8 °F 60.8 °F 29.70 in SW 1.0 mph 1.0 mph 90% 0.00 in
00:53 63.5 °F 60.5 °F 29.70 in SW 1.0 mph 2.0 mph 90% 0.00 in
00:58 63.4 °F 60.7 °F 29.70 in SSW 1.0 mph 2.0 mph 91% 0.00 in
01:03 63.3 °F 60.6 °F 29.70 in SW 1.0 mph 2.0 mph 91% 0.00 in
01:08 63.3 °F 60.6 °F 29.70 in SSW 1.0 mph 1.0 mph 91% 0.00 in
01:13 63.4 °F 60.7 °F 29.70 in SW 1.0 mph 1.0 mph 91% 0.00 in
01:18 63.5 °F 60.8 °F 29.70 in Calm   1.0 mph 91% 0.00 in
01:23 63.4 °F 60.7 °F 29.70 in Calm     91% 0.00 in
01:28 63.2 °F 60.5 °F 29.70 in Calm     91% 0.00 in
01:33 63.0 °F 60.3 °F 29.69 in Calm     91% 0.00 in
01:38 62.6 °F 59.9 °F 29.69 in Calm     91% 0.00 in
01:43 62.3 °F 60.0 °F 29.69 in Calm     92% 0.00 in
01:48 62.1 °F 59.8 °F 29.69 in Calm     92% 0.00 in
01:53 62.0 °F 59.7 °F 29.69 in Calm     92% 0.00 in
01:58 61.8 °F 59.8 °F 29.69 in Calm     93% 0.00 in
02:03 61.4 °F 59.4 °F 29.69 in Calm     93% 0.00 in
02:08 61.1 °F 59.1 °F 29.69 in Calm     93% 0.00 in
02:13 60.9 °F 58.9 °F 29.69 in Calm     93% 0.00 in
02:18 60.9 °F 59.2 °F 29.69 in Calm     94% 0.00 in
02:23 60.7 °F 59.0 °F 29.69 in Calm     94% 0.00 in
02:28 60.4 °F 58.7 °F 29.69 in Calm     94% 0.00 in
02:33 60.6 °F 58.9 °F 29.69 in Calm     94% 0.00 in
02:38 60.7 °F 59.0 °F 29.69 in Calm     94% 0.00 in
02:43 60.7 °F 59.0 °F 29.69 in Calm     94% 0.00 in
02:48 60.5 °F 58.8 °F 29.69 in Calm     94% 0.00 in
02:53 60.5 °F 58.8 °F 29.69 in Calm     94% 0.00 in
02:59 60.5 °F 58.8 °F 29.69 in Calm     94% 0.00 in
03:04 60.3 °F 58.6 °F 29.69 in Calm     94% 0.00 in
03:09 59.9 °F 58.2 °F 29.69 in Calm     94% 0.00 in
03:14 59.7 °F 58.0 °F 29.69 in Calm     94% 0.00 in
03:19 59.5 °F 58.1 °F 29.69 in Calm     95% 0.00 in
03:24 59.4 °F 58.0 °F 29.68 in Calm     95% 0.00 in
03:29 59.3 °F 57.9 °F 29.68 in Calm     95% 0.00 in
03:34 59.1 °F 57.7 °F 29.68 in Calm     95% 0.00 in
03:39 58.9 °F 57.5 °F 29.68 in Calm     95% 0.00 in
03:44 58.5 °F 57.1 °F 29.67 in Calm     95% 0.00 in
03:49 58.0 °F 56.6 °F 29.67 in Calm     95% 0.00 in
03:54 57.8 °F 56.4 °F 29.68 in Calm     95% 0.00 in
03:59 57.9 °F 56.5 °F 29.67 in Calm     95% 0.00 in
04:04 57.5 °F 56.1 °F 29.67 in Calm     95% 0.00 in
04:09 57.2 °F 55.8 °F 29.67 in Calm     95% 0.00 in
04:14 58.0 °F 56.6 °F 29.68 in Calm     95% 0.00 in
04:19 58.3 °F 56.9 °F 29.68 in Calm     95% 0.00 in
04:24 58.6 °F 57.2 °F 29.68 in Calm     95% 0.00 in
04:29 58.9 °F 57.5 °F 29.68 in Calm     95% 0.00 in
04:35 59.0 °F 57.6 °F 29.68 in Calm     95% 0.00 in
04:40 59.0 °F 57.6 °F 29.68 in Calm     95% 0.00 in
04:45 59.0 °F 57.6 °F 29.68 in Calm   2.0 mph 95% 0.00 in
04:50 59.1 °F 57.7 °F 29.68 in SW 1.0 mph 1.0 mph 95% 0.00 in
04:55 59.1 °F 57.7 °F 29.68 in Calm   2.0 mph 95% 0.00 in
05:00 59.3 °F 57.9 °F 29.68 in SW 1.0 mph 2.0 mph 95% 0.00 in
05:05 59.4 °F 58.0 °F 29.68 in WSW 2.0 mph 2.0 mph 95% 0.00 in
05:10 59.4 °F 58.0 °F 29.68 in SW 1.0 mph 1.0 mph 95% 0.00 in
05:15 59.5 °F 58.1 °F 29.69 in SW 2.0 mph 2.0 mph 95% 0.00 in
05:20 59.7 °F 58.3 °F 29.69 in Calm   3.0 mph 95% 0.00 in
05:25 59.8 °F 58.4 °F 29.69 in SW 2.0 mph 3.0 mph 95% 0.00 in
05:30 60.0 °F 58.6 °F 29.69 in SW 1.0 mph 2.0 mph 95% 0.00 in
05:35 59.9 °F 58.5 °F 29.69 in SW 1.0 mph 2.0 mph 95% 0.00 in
05:40 59.9 °F 58.5 °F 29.69 in SW 1.0 mph 2.0 mph 95% 0.00 in
05:45 59.8 °F 58.4 °F 29.69 in WSW 2.0 mph 2.0 mph 95% 0.00 in
05:50 59.9 °F 58.5 °F 29.69 in SW 2.0 mph 2.0 mph 95% 0.00 in
05:55 59.6 °F 58.2 °F 29.69 in Calm   1.0 mph 95% 0.00 in
06:00 59.5 °F 58.1 °F 29.69 in SW 1.0 mph 1.0 mph 95% 0.00 in
06:05 59.4 °F 58.0 °F 29.69 in SW 1.0 mph 1.0 mph 95% 0.00 in
06:10 59.3 °F 57.9 °F 29.69 in SSW 1.0 mph 2.0 mph 95% 0.00 in
06:11 59.3 °F 57.9 °F 29.69 in SSW 1.0 mph 2.0 mph 95% 0.00 in
06:16 59.2 °F 57.8 °F 29.69 in Calm   1.0 mph 95% 0.00 in
06:21 59.1 °F 57.7 °F 29.70 in Calm   1.0 mph 95% 0.00 in
06:26 59.1 °F 57.7 °F 29.70 in Calm   1.0 mph 95% 0.00 in
06:31 59.1 °F 57.7 °F 29.70 in Calm     95% 0.00 in
06:36 59.0 °F 57.6 °F 29.70 in Calm     95% 0.00 in
06:41 58.9 °F 57.5 °F 29.70 in Calm     95% 0.00 in
06:46 59.0 °F 57.6 °F 29.70 in Calm     95% 0.00 in
06:51 59.0 °F 57.6 °F 29.70 in Calm     95% 0.00 in
06:56 59.0 °F 57.6 °F 29.70 in Calm     95% 0.00 in
07:01 59.0 °F 57.6 °F 29.70 in Calm     95% 0.00 in
07:06 58.8 °F 57.4 °F 29.70 in SSE 1.0 mph 1.0 mph 95% 0.00 in
07:12 58.8 °F 57.4 °F 29.70 in Calm   1.0 mph 95% 0.00 in
07:17 58.7 °F 57.3 °F 29.69 in Calm     95% 0.00 in
07:22 58.7 °F 57.3 °F 29.70 in Calm     95% 0.00 in
07:27 58.7 °F 57.3 °F 29.70 in SSE 2.0 mph 2.0 mph 95% 0.00 in
07:32 58.7 °F 57.3 °F 29.70 in Calm   2.0 mph 95% 0.00 in
07:37 58.6 °F 57.2 °F 29.70 in SSW 1.0 mph 1.0 mph 95% 0.00 in
07:42 58.6 °F 57.2 °F 29.70 in Calm   1.0 mph 95% 0.00 in
07:47 58.6 °F 57.2 °F 29.70 in WSW 1.0 mph 2.0 mph 95% 0.00 in
07:52 58.9 °F 57.5 °F 29.70 in SW 2.0 mph 3.0 mph 95% 0.00 in
07:58 59.2 °F 57.8 °F 29.71 in SW 3.0 mph 3.0 mph 95% 0.00 in
08:03 59.4 °F 58.0 °F 29.71 in South 3.0 mph 3.0 mph 95% 0.00 in
08:04 59.4 °F 58.0 °F 29.71 in South 3.0 mph 3.0 mph 95% 0.00 in
08:09 59.7 °F 58.3 °F 29.72 in South 3.0 mph 4.0 mph 95% 0.00 in
08:14 59.8 °F 58.4 °F 29.71 in South 2.0 mph 4.0 mph 95% 0.00 in
08:19 60.0 °F 58.6 °F 29.71 in SW 2.0 mph 3.0 mph 95% 0.00 in
08:24 60.1 °F 58.7 °F 29.70 in SSW 2.0 mph 2.0 mph 95% 0.00 in
08:29 60.4 °F 59.0 °F 29.71 in SW 2.0 mph 3.0 mph 95% 0.00 in
08:34 60.7 °F 59.3 °F 29.70 in SW 1.0 mph 3.0 mph 95% 0.00 in
08:39 60.8 °F 59.4 °F 29.70 in SW 2.0 mph 4.0 mph 95% 0.00 in
08:40 60.8 °F 59.4 °F 29.70 in SW 2.0 mph 4.0 mph 95% 0.00 in
08:45 60.8 °F 59.4 °F 29.70 in SW 3.0 mph 4.0 mph 95% 0.00 in
08:50 60.8 °F 59.4 °F 29.70 in SW 4.0 mph 4.0 mph 95% 0.00 in
08:55 60.9 °F 59.5 °F 29.70 in SW 4.0 mph 4.0 mph 95% 0.00 in
09:00 61.0 °F 59.6 °F 29.70 in SSW 2.0 mph 3.0 mph 95% 0.00 in
09:05 61.0 °F 59.3 °F 29.70 in SW 2.0 mph 3.0 mph 94% 0.00 in
09:10 61.1 °F 59.4 °F 29.70 in SW 1.0 mph 3.0 mph 94% 0.00 in
09:15 61.1 °F 59.4 °F 29.70 in SW 3.0 mph 4.0 mph 94% 0.00 in
09:20 61.0 °F 59.3 °F 29.71 in SW 3.0 mph 7.0 mph 94% 0.00 in
09:25 60.9 °F 59.2 °F 29.71 in SSW 2.0 mph 4.0 mph 94% 0.00 in
09:30 60.8 °F 59.1 °F 29.71 in SSW 4.0 mph 6.0 mph 94% 0.00 in
09:35 60.8 °F 59.1 °F 29.70 in SW 4.0 mph 7.0 mph 94% 0.00 in
09:40 60.9 °F 59.2 °F 29.71 in WSW 2.0 mph 4.0 mph 94% 0.00 in
09:45 61.0 °F 59.3 °F 29.70 in SW 3.0 mph 5.0 mph 94% 0.00 in
09:51 61.0 °F 59.3 °F 29.71 in SW 5.0 mph 7.0 mph 94% 0.00 in
09:56 61.1 °F 59.4 °F 29.70 in WSW 3.0 mph 5.0 mph 94% 0.00 in
10:01 61.3 °F 59.6 °F 29.70 in SW 4.0 mph 5.0 mph 94% 0.00 in
10:06 61.3 °F 59.3 °F 29.70 in South 2.0 mph 5.0 mph 93% 0.00 in
10:11 61.5 °F 59.5 °F 29.70 in SSW 1.0 mph 3.0 mph 93% 0.00 in
10:16 61.8 °F 59.8 °F 29.70 in SE 1.0 mph 2.0 mph 93% 0.00 in
10:21 62.0 °F 60.0 °F 29.70 in South 1.0 mph 2.0 mph 93% 0.00 in
10:26 62.2 °F 60.2 °F 29.69 in ESE 2.0 mph 4.0 mph 93% 0.00 in
10:31 62.3 °F 60.0 °F 29.70 in Calm   2.0 mph 92% 0.00 in
10:36 62.7 °F 60.3 °F 29.70 in WSW 2.0 mph 2.0 mph 92% 0.00 in
10:41 62.9 °F 60.5 °F 29.70 in West 2.0 mph 3.0 mph 92% 0.00 in
10:47 63.2 °F 60.8 °F 29.70 in NNW 2.0 mph 3.0 mph 92% 0.00 in
10:52 63.2 °F 60.5 °F 29.70 in Calm   2.0 mph 91% 0.00 in
10:58 63.5 °F 60.5 °F 29.70 in Calm   1.0 mph 90% 0.00 in
11:03 63.6 °F 60.6 °F 29.70 in WNW 2.0 mph 3.0 mph 90% 0.00 in
11:08 63.9 °F 61.2 °F 29.70 in West 3.0 mph 4.0 mph 91% 0.00 in
11:13 64.1 °F 61.1 °F 29.70 in WNW 2.0 mph 6.0 mph 90% 0.00 in
11:18 64.2 °F 61.2 °F 29.71 in WNW 2.0 mph 6.0 mph 90% 0.00 in
11:23 64.6 °F 61.6 °F 29.71 in SW 4.0 mph 5.0 mph 90% 0.00 in
11:28 64.7 °F 61.7 °F 29.71 in WNW 2.0 mph 6.0 mph 90% 0.00 in
11:33 65.0 °F 62.0 °F 29.71 in WSW 4.0 mph 5.0 mph 90% 0.00 in
11:39 65.5 °F 61.9 °F 29.72 in West 1.0 mph 5.0 mph 88% 0.00 in
11:44 65.7 °F 61.7 °F 29.72 in WNW 5.0 mph 6.0 mph 87% 0.00 in
11:49 66.0 °F 61.4 °F 29.72 in WNW 3.0 mph 5.0 mph 85% 0.00 in
11:54 66.0 °F 61.0 °F 29.72 in NW 2.0 mph 6.0 mph 84% 0.00 in
11:59 66.3 °F 61.3 °F 29.71 in WSW 2.0 mph 4.0 mph 84% 0.00 in
12:04 66.9 °F 61.6 °F 29.71 in West 3.0 mph 6.0 mph 83% 0.00 in
12:10 67.7 °F 62.4 °F 29.71 in NW 3.0 mph 3.0 mph 83% 0.00 in
12:15 68.0 °F 62.0 °F 29.70 in West 3.0 mph 4.0 mph 81% 0.00 in
12:20 68.4 °F 61.6 °F 29.71 in West 2.0 mph 6.0 mph 79% 0.00 in
12:25 68.7 °F 62.3 °F 29.71 in SSW 4.0 mph 4.0 mph 80% 0.00 in
12:30 69.0 °F 61.5 °F 29.70 in SW 4.0 mph 5.0 mph 77% 0.00 in
12:35 69.1 °F 61.2 °F 29.70 in WSW 2.0 mph 6.0 mph 76% 0.00 in
12:40 69.1 °F 62.0 °F 29.69 in SW 1.0 mph 3.0 mph 78% 0.00 in
12:45 69.5 °F 62.3 °F 29.68 in NNW 4.0 mph 5.0 mph 78% 0.00 in
12:50 69.2 °F 62.1 °F 29.67 in NW 3.0 mph 5.0 mph 78% 0.00 in
12:55 69.1 °F 62.0 °F 29.67 in NW 2.0 mph 3.0 mph 78% 0.00 in
13:00 69.3 °F 61.4 °F 29.68 in West 2.0 mph 5.0 mph 76% 0.00 in
13:05 69.2 °F 61.7 °F 29.69 in West 5.0 mph 5.0 mph 77% 0.00 in
13:10 69.4 °F 61.5 °F 29.69 in SSW 4.0 mph 6.0 mph 76% 0.00 in
13:15 69.5 °F 61.6 °F 29.70 in WSW 5.0 mph 9.0 mph 76% 0.00 in
13:20 69.9 °F 61.6 °F 29.70 in SW 9.0 mph 9.0 mph 75% 0.00 in
13:25 69.9 °F 61.2 °F 29.70 in SW 5.0 mph 7.0 mph 74% 0.00 in
13:30 69.7 °F 61.4 °F 29.70 in WSW 6.0 mph 6.0 mph 75% 0.00 in
13:35 69.4 °F 60.8 °F 29.70 in WSW 5.0 mph 10.0 mph 74% 0.00 in
13:40 69.1 °F 59.7 °F 29.70 in SW 7.0 mph 11.0 mph 72% 0.00 in
13:45 68.8 °F 59.4 °F 29.70 in SW 8.0 mph 12.0 mph 72% 0.00 in
13:50 68.6 °F 59.6 °F 29.70 in West 4.0 mph 9.0 mph 73% 0.00 in
13:55 68.5 °F 58.7 °F 29.70 in WSW 6.0 mph 11.0 mph 71% 0.00 in
14:00 68.3 °F 58.2 °F 29.70 in WSW 7.0 mph 10.0 mph 70% 0.00 in
14:01 68.3 °F 58.2 °F 29.70 in SW 6.0 mph 10.0 mph 70% 0.00 in
14:06 68.3 °F 59.3 °F 29.70 in WSW 12.0 mph 12.0 mph 73% 0.00 in
14:11 68.2 °F 58.5 °F 29.69 in West 8.0 mph 11.0 mph 71% 0.00 in
14:16 68.2 °F 58.8 °F 29.69 in WSW 10.0 mph 13.0 mph 72% 0.00 in
14:21 68.2 °F 58.8 °F 29.69 in West 11.0 mph 11.0 mph 72% 0.00 in
14:26 68.4 °F 58.6 °F 29.68 in West 4.0 mph 10.0 mph 71% 0.00 in
14:31 69.1 °F 60.1 °F 29.68 in WSW 7.0 mph 8.0 mph 73% 0.00 in
14:36 69.0 °F 58.4 °F 29.68 in WSW 6.0 mph 13.0 mph 69% 0.00 in
14:42 69.5 °F 57.7 °F 29.68 in SW 9.0 mph 14.0 mph 66% 0.00 in
14:47 69.7 °F 58.7 °F 29.67 in SW 9.0 mph 10.0 mph 68% 0.00 in
14:52 69.9 °F 57.2 °F 29.67 in WSW 14.0 mph 14.0 mph 64% 0.00 in
14:57 70.1 °F 56.9 °F 29.66 in West 11.0 mph 11.0 mph 63% 0.00 in
15:02 70.4 °F 56.8 °F 29.66 in WNW 5.0 mph 11.0 mph 62% 0.00 in
15:07 70.4 °F 57.7 °F 29.66 in South 4.0 mph 12.0 mph 64% 0.00 in
15:12 70.2 °F 55.7 °F 29.65 in WNW 7.0 mph 15.0 mph 60% 0.00 in
15:17 70.4 °F 55.4 °F 29.66 in WNW 8.0 mph 9.0 mph 59% 0.00 in
15:22 70.4 °F 55.9 °F 29.66 in West 7.0 mph 11.0 mph 60% 0.00 in
15:27 70.4 °F 56.8 °F 29.66 in WSW 6.0 mph 15.0 mph 62% 0.00 in
15:32 70.4 °F 54.9 °F 29.65 in West 6.0 mph 13.0 mph 58% 0.00 in
15:38 70.7 °F 56.2 °F 29.66 in West 8.0 mph 15.0 mph 60% 0.00 in
15:43 70.5 °F 54.1 °F 29.65 in WNW 7.0 mph 12.0 mph 56% 0.00 in
15:48 70.5 °F 55.5 °F 29.64 in WNW 8.0 mph 10.0 mph 59% 0.00 in
15:53 70.6 °F 55.1 °F 29.64 in WNW 4.0 mph 14.0 mph 58% 0.00 in
15:58 70.9 °F 54.9 °F 29.64 in SW 8.0 mph 10.0 mph 57% 0.00 in
16:03 71.3 °F 53.8 °F 29.64 in West 3.0 mph 8.0 mph 54% 0.00 in
16:08 71.4 °F 55.4 °F 29.63 in WNW 6.0 mph 8.0 mph 57% 0.00 in
16:13 71.5 °F 51.9 °F 29.63 in West 5.0 mph 9.0 mph 50% 0.00 in
16:18 71.6 °F 54.1 °F 29.62 in WNW 7.0 mph 8.0 mph 54% 0.00 in
16:23 71.3 °F 53.3 °F 29.63 in WNW 3.0 mph 6.0 mph 53% 0.00 in
16:28 70.7 °F 50.6 °F 29.62 in West 4.0 mph 8.0 mph 49% 0.00 in
16:33 71.0 °F 50.9 °F 29.62 in West 3.0 mph 7.0 mph 49% 0.00 in
16:38 72.3 °F 52.1 °F 29.62 in West 2.0 mph 4.0 mph 49% 0.00 in
16:43 72.2 °F 50.9 °F 29.62 in SW 3.0 mph 6.0 mph 47% 0.00 in
16:48 72.5 °F 51.7 °F 29.61 in SW 3.0 mph 6.0 mph 48% 0.00 in
16:54 72.6 °F 52.9 °F 29.61 in SSW 4.0 mph 5.0 mph 50% 0.00 in
16:59 72.9 °F 52.1 °F 29.61 in WSW 1.0 mph 3.0 mph 48% 0.00 in
17:04 72.8 °F 49.6 °F 29.62 in SW 2.0 mph 4.0 mph 44% 0.00 in
17:09 72.3 °F 49.2 °F 29.62 in West 6.0 mph 9.0 mph 44% 0.00 in
17:14 72.6 °F 50.1 °F 29.62 in SSE 4.0 mph 6.0 mph 45% 0.00 in
17:19 72.5 °F 51.2 °F 29.62 in WNW 3.0 mph 6.0 mph 47% 0.00 in
17:24 71.3 °F 50.6 °F 29.63 in WSW 4.0 mph 9.0 mph 48% 0.00 in
17:29 70.6 °F 51.1 °F 29.63 in WSW 5.0 mph 8.0 mph 50% 0.00 in
17:34 70.2 °F 51.2 °F 29.63 in SW 9.0 mph 9.0 mph 51% 0.00 in
17:39 69.7 °F 51.3 °F 29.63 in WNW 8.0 mph 11.0 mph 52% 0.00 in
17:44 69.4 °F 50.5 °F 29.63 in West 4.0 mph 7.0 mph 51% 0.00 in
17:49 69.1 °F 50.2 °F 29.64 in West 6.0 mph 7.0 mph 51% 0.00 in
17:54 68.9 °F 50.6 °F 29.64 in West 8.0 mph 11.0 mph 52% 0.00 in
17:59 68.5 °F 50.7 °F 29.64 in WSW 5.0 mph 7.0 mph 53% 0.00 in
18:04 68.3 °F 51.0 °F 29.64 in WSW 8.0 mph 9.0 mph 54% 0.00 in
18:09 68.1 °F 50.3 °F 29.64 in WSW 4.0 mph 10.0 mph 53% 0.00 in
18:14 67.9 °F 50.7 °F 29.64 in WSW 8.0 mph 8.0 mph 54% 0.00 in
18:19 67.7 °F 51.0 °F 29.64 in West 3.0 mph 5.0 mph 55% 0.00 in
18:24 67.5 °F 50.8 °F 29.64 in WNW 6.0 mph 6.0 mph 55% 0.00 in
18:29 67.2 °F 51.0 °F 29.65 in WNW 5.0 mph 12.0 mph 56% 0.00 in
18:35 65.3 °F 53.2 °F 29.66 in WNW 16.0 mph 17.0 mph 65% 0.00 in
18:40 62.7 °F 55.8 °F 29.66 in WNW 9.0 mph 21.0 mph 78% 0.00 in
18:45 61.3 °F 55.1 °F 29.67 in NW 14.0 mph 20.0 mph 80% 0.00 in
18:50 60.5 °F 54.3 °F 29.67 in NW 17.0 mph 23.0 mph 80% 0.00 in
18:55 59.9 °F 54.1 °F 29.67 in NNW 14.0 mph 20.0 mph 81% 0.00 in
19:00 59.6 °F 54.1 °F 29.67 in NW 14.0 mph 18.0 mph 82% 0.00 in
19:05 59.5 °F 54.0 °F 29.67 in NW 9.0 mph 21.0 mph 82% 0.00 in
19:10 59.4 °F 53.9 °F 29.67 in NNW 17.0 mph 17.0 mph 82% 0.00 in
19:15 59.3 °F 54.5 °F 29.67 in NW 15.0 mph 19.0 mph 84% 0.00 in
19:20 59.0 °F 54.5 °F 29.67 in NW 8.0 mph 16.0 mph 85% 0.00 in
19:25 58.5 °F 54.3 °F 29.67 in NW 12.0 mph 16.0 mph 86% 0.00 in
19:30 58.4 °F 54.5 °F 29.67 in NNW 9.0 mph 14.0 mph 87% 0.00 in
19:35 58.3 °F 54.8 °F 29.67 in North 9.0 mph 10.0 mph 88% 0.00 in
19:40 58.3 °F 54.8 °F 29.67 in NNW 12.0 mph 17.0 mph 88% 0.00 in
19:45 58.3 °F 54.8 °F 29.67 in North 13.0 mph 13.0 mph 88% 0.00 in
19:46 58.2 °F 54.7 °F 29.67 in NNW 11.0 mph 13.0 mph 88% 0.00 in
19:51 58.0 °F 54.5 °F 29.67 in NNE 7.0 mph 15.0 mph 88% 0.00 in
19:56 57.8 °F 54.6 °F 29.67 in NNE 7.0 mph 13.0 mph 89% 0.00 in
20:01 57.6 °F 54.7 °F 29.67 in NNW 4.0 mph 13.0 mph 90% 0.00 in
20:06 57.4 °F 54.5 °F 29.68 in NNW 7.0 mph 16.0 mph 90% 0.00 in
20:11 57.2 °F 54.3 °F 29.68 in NNW 7.0 mph 15.0 mph 90% 0.00 in
20:17 57.2 °F 54.6 °F 29.68 in NNW 10.0 mph 13.0 mph 91% 0.00 in
20:22 57.1 °F 54.5 °F 29.68 in NNE 5.0 mph 12.0 mph 91% 0.00 in
20:27 57.0 °F 54.4 °F 29.68 in NNE 5.0 mph 8.0 mph 91% 0.00 in
20:32 56.9 °F 54.3 °F 29.68 in NNW 5.0 mph 8.0 mph 91% 0.00 in
20:37 56.8 °F 54.2 °F 29.69 in NW 6.0 mph 12.0 mph 91% 0.00 in
20:42 56.7 °F 54.1 °F 29.69 in North 4.0 mph 12.0 mph 91% 0.00 in
20:47 56.7 °F 53.8 °F 29.70 in NNE 6.0 mph 11.0 mph 90% 0.00 in
20:52 56.6 °F 53.7 °F 29.70 in NNW 9.0 mph 12.0 mph 90% 0.00 in
20:53 56.7 °F 53.8 °F 29.70 in North 4.0 mph 12.0 mph 90% 0.00 in
20:58 56.5 °F 53.6 °F 29.70 in NNW 11.0 mph 11.0 mph 90% 0.00 in
21:03 56.5 °F 53.6 °F 29.71 in NW 6.0 mph 12.0 mph 90% 0.00 in
21:08 56.4 °F 53.5 °F 29.71 in NNW 3.0 mph 5.0 mph 90% 0.00 in
21:13 56.2 °F 53.6 °F 29.71 in NW 5.0 mph 10.0 mph 91% 0.00 in
21:18 56.2 °F 53.6 °F 29.71 in NNW 1.0 mph 8.0 mph 91% 0.00 in
21:24 56.1 °F 53.5 °F 29.71 in North 1.0 mph 6.0 mph 91% 0.00 in
21:29 55.9 °F 53.3 °F 29.72 in NNW 3.0 mph 6.0 mph 91% 0.00 in
21:34 55.8 °F 53.2 °F 29.72 in NNW 2.0 mph 5.0 mph 91% 0.00 in
21:39 55.7 °F 53.4 °F 29.72 in NNE 3.0 mph 3.0 mph 92% 0.00 in
21:44 55.6 °F 53.3 °F 29.73 in North 3.0 mph 4.0 mph 92% 0.00 in
21:49 55.7 °F 53.4 °F 29.73 in NNE 5.0 mph 6.0 mph 92% 0.00 in
21:54 55.9 °F 53.6 °F 29.73 in NE 3.0 mph 8.0 mph 92% 0.00 in
22:00 56.1 °F 53.8 °F 29.74 in NNE 2.0 mph 8.0 mph 92% 0.00 in
22:05 56.2 °F 53.9 °F 29.74 in NNW 4.0 mph 7.0 mph 92% 0.00 in
22:10 56.2 °F 53.6 °F 29.74 in NNE 5.0 mph 11.0 mph 91% 0.00 in
22:15 56.2 °F 53.6 °F 29.75 in North 5.0 mph 9.0 mph 91% 0.00 in
22:20 56.0 °F 53.1 °F 29.75 in WNW 3.0 mph 7.0 mph 90% 0.00 in
22:25 55.9 °F 53.3 °F 29.75 in North 4.0 mph 8.0 mph 91% 0.00 in
22:30 55.8 °F 53.2 °F 29.75 in NW 2.0 mph 7.0 mph 91% 0.00 in
22:36 55.9 °F 53.3 °F 29.76 in North 4.0 mph 6.0 mph 91% 0.00 in
22:41 55.9 °F 53.0 °F 29.76 in NW 6.0 mph 6.0 mph 90% 0.00 in
22:46 55.9 °F 53.0 °F 29.76 in NNW 3.0 mph 9.0 mph 90% 0.00 in
22:51 55.8 °F 52.6 °F 29.76 in NNW 4.0 mph 8.0 mph 89% 0.00 in
22:57 55.8 °F 52.6 °F 29.76 in NNW 5.0 mph 7.0 mph 89% 0.00 in
23:02 55.8 °F 52.9 °F 29.77 in North 4.0 mph 6.0 mph 90% 0.00 in
23:07 55.7 °F 52.8 °F 29.77 in NNW 4.0 mph 6.0 mph 90% 0.00 in
23:12 55.7 °F 52.8 °F 29.77 in North 3.0 mph 6.0 mph 90% 0.00 in
23:17 55.7 °F 52.8 °F 29.77 in NW 2.0 mph 6.0 mph 90% 0.00 in
23:22 55.6 °F 52.7 °F 29.77 in NNE 3.0 mph 10.0 mph 90% 0.00 in
23:27 55.5 °F 52.6 °F 29.77 in North 3.0 mph 7.0 mph 90% 0.00 in
23:33 55.4 °F 52.5 °F 29.78 in North 4.0 mph 8.0 mph 90% 0.00 in
23:38 55.3 °F 52.4 °F 29.78 in NW 6.0 mph 8.0 mph 90% 0.00 in
23:43 55.2 °F 52.3 °F 29.78 in NW 6.0 mph 10.0 mph 90% 0.00 in
23:48 55.0 °F 52.1 °F 29.79 in NW 5.0 mph 10.0 mph 90% 0.00 in
23:50 54.9 °F 52.0 °F 29.79 in North 5.0 mph 10.0 mph 90% 0.00 in
23:56 54.8 °F 52.2 °F 29.79 in NNE 7.0 mph 9.0 mph 91% 0.00 in
Compliments of Weather Underground